Time;durP1;ratioP1;P1;durP2;ratioP2;P2;SDS_P1;SDS_P2;PMS_P1;PMS_P2;Temp;Humidity;BMP_temperature;BMP_pressure;BME280_temperature;BME280_humidity;BME280_pressure;Samples;Min_cycle;Max_cycle;Signal;HPM_P1;HPM_P2
2021/10/23 00:00:53;;;;;;;18.63;3.43;;;;;;;;;;5024511;28;20230;-70
2021/10/23 00:03:18;;;;;;;24.37;4.63;;;;;;;;;;5017810;28;20273;-70
2021/10/23 00:05:44;;;;;;;24.10;3.50;;;;;;;;;;5024985;28;20190;-70
2021/10/23 00:08:09;;;;;;;21.13;3.73;;;;;;;;;;5020145;28;20240;-70
2021/10/23 00:10:34;;;;;;;23.10;4.30;;;;;;;;;;5027417;28;20198;-69
2021/10/23 00:13:00;;;;;;;13.23;3.47;;;;;;;;;;5017187;28;20191;-69
2021/10/23 00:15:25;;;;;;;16.53;3.63;;;;;;;;;;5026747;28;20587;-70
2021/10/23 00:17:51;;;;;;;16.70;3.53;;;;;;;;;;5025443;28;20206;-69
2021/10/23 00:20:16;;;;;;;12.97;3.40;;;;;;;;;;5015328;28;20233;-69
2021/10/23 00:22:41;;;;;;;13.97;3.23;;;;;;;;;;5026465;28;20654;-69
2021/10/23 00:25:07;;;;;;;14.77;3.30;;;;;;;;;;5012089;28;20276;-69
2021/10/23 00:27:33;;;;;;;20.87;3.43;;;;;;;;;;5022915;28;20332;-69
2021/10/23 00:29:59;;;;;;;13.13;3.30;;;;;;;;;;5019427;28;20194;-69
2021/10/23 00:32:25;;;;;;;22.43;3.53;;;;;;;;;;5025789;28;20705;-69
2021/10/23 00:34:51;;;;;;;16.03;3.10;;;;;;;;;;5014149;28;20621;-69
2021/10/23 00:37:17;;;;;;;18.27;3.73;;;;;;;;;;5024758;28;20221;-69
2021/10/23 00:39:42;;;;;;;19.83;4.57;;;;;;;;;;5011976;28;20182;-69
2021/10/23 00:42:08;;;;;;;20.77;3.93;;;;;;;;;;5020318;28;20206;-69
2021/10/23 00:44:36;;;;;;;17.07;3.87;;;;;;;;;;5013636;28;20201;-69
2021/10/23 00:47:06;;;;;;;22.47;3.83;;;;;;;;;;5018405;28;20221;-69
2021/10/23 00:49:33;;;;;;;22.00;3.67;;;;;;;;;;5022074;28;20517;-69
2021/10/23 00:52:00;;;;;;;17.00;3.13;;;;;;;;;;5012124;28;20186;-69
2021/10/23 00:54:26;;;;;;;19.93;3.00;;;;;;;;;;5023185;28;20208;-69
2021/10/23 00:56:53;;;;;;;21.17;4.00;;;;;;;;;;5013680;28;20760;-69
2021/10/23 00:59:18;;;;;;;21.50;3.70;;;;;;;;;;5021187;28;20194;-68
2021/10/23 01:01:44;;;;;;;17.70;3.90;;;;;;;;;;5014867;28;20609;-69
2021/10/23 01:04:09;;;;;;;22.63;3.80;;;;;;;;;;5024738;28;20186;-69
2021/10/23 01:06:35;;;;;;;20.13;4.07;;;;;;;;;;5013178;28;20189;-69
2021/10/23 01:09:00;;;;;;;17.23;3.40;;;;;;;;;;5024430;28;20222;-69
2021/10/23 01:11:27;;;;;;;19.33;3.40;;;;;;;;;;5014418;28;20271;-69
2021/10/23 01:13:52;;;;;;;18.77;3.67;;;;;;;;;;5021624;28;20198;-69
2021/10/23 01:16:17;;;;;;;23.00;3.97;;;;;;;;;;5015603;28;20637;-69
2021/10/23 01:18:44;;;;;;;17.73;3.90;;;;;;;;;;5021529;28;20596;-69
2021/10/23 01:21:09;;;;;;;24.10;4.17;;;;;;;;;;5024048;28;20263;-69
2021/10/23 01:23:35;;;;;;;16.17;3.60;;;;;;;;;;5012574;28;20187;-70
2021/10/23 01:26:01;;;;;;;16.13;3.73;;;;;;;;;;5025076;28;20292;-70
2021/10/23 01:28:27;;;;;;;16.87;3.70;;;;;;;;;;5010375;28;20913;-69
2021/10/23 01:30:56;;;;;;;15.17;3.43;;;;;;;;;;5026659;28;20628;-69
2021/10/23 01:33:21;;;;;;;17.53;3.23;;;;;;;;;;5015263;28;20190;-69
2021/10/23 01:35:47;;;;;;;17.17;3.53;;;;;;;;;;5026389;28;20196;-69
2021/10/23 01:38:12;;;;;;;19.20;3.80;;;;;;;;;;5015788;28;20481;-69
2021/10/23 01:40:38;;;;;;;18.73;3.63;;;;;;;;;;5019760;28;20568;-69
2021/10/23 01:43:04;;;;;;;21.40;3.87;;;;;;;;;;5016327;28;20224;-69
2021/10/23 01:45:31;;;;;;;22.63;5.33;;;;;;;;;;5027027;28;20256;-71
2021/10/23 01:47:57;;;;;;;19.73;4.27;;;;;;;;;;5015898;28;20194;-68
2021/10/23 01:50:24;;;;;;;14.93;3.20;;;;;;;;;;5025167;28;20190;-70
2021/10/23 01:52:50;;;;;;;17.03;4.70;;;;;;;;;;5024023;28;20190;-70
2021/10/23 01:55:17;;;;;;;13.97;3.90;;;;;;;;;;5016550;28;20223;-70
2021/10/23 01:57:43;;;;;;;14.30;3.37;;;;;;;;;;5023715;28;20585;-70
2021/10/23 02:00:10;;;;;;;16.33;4.13;;;;;;;;;;5018863;28;20277;-70
2021/10/23 02:02:36;;;;;;;26.57;4.47;;;;;;;;;;5020933;28;20351;-70
2021/10/23 02:05:02;;;;;;;16.67;3.77;;;;;;;;;;5018002;28;20272;-70
2021/10/23 02:07:27;;;;;;;15.87;4.57;;;;;;;;;;5019249;28;20186;-70
2021/10/23 02:09:53;;;;;;;24.40;4.43;;;;;;;;;;5015356;28;20675;-70
2021/10/23 02:12:18;;;;;;;20.10;4.20;;;;;;;;;;5021471;28;20185;-70
2021/10/23 02:14:44;;;;;;;12.10;3.83;;;;;;;;;;5017338;28;20272;-70
2021/10/23 02:17:09;;;;;;;16.87;4.07;;;;;;;;;;5023461;28;20189;-70
2021/10/23 02:19:34;;;;;;;17.20;3.97;;;;;;;;;;5014686;28;20690;-70
2021/10/23 02:22:00;;;;;;;21.77;4.67;;;;;;;;;;5022076;28;20347;-70
2021/10/23 02:24:25;;;;;;;21.73;4.90;;;;;;;;;;5024653;28;20191;-70
2021/10/23 02:26:50;;;;;;;24.17;5.23;;;;;;;;;;5014019;28;20277;-70
2021/10/23 02:29:16;;;;;;;18.80;4.87;;;;;;;;;;5024283;28;20196;-70
2021/10/23 02:31:41;;;;;;;21.97;5.70;;;;;;;;;;5014494;28;20183;-69
2021/10/23 02:34:07;;;;;;;16.53;5.20;;;;;;;;;;5024144;28;20724;-69
2021/10/23 02:36:32;;;;;;;22.50;4.63;;;;;;;;;;5012398;28;20241;-69
2021/10/23 02:38:58;;;;;;;16.27;4.70;;;;;;;;;;5021544;28;20192;-69
2021/10/23 02:41:25;;;;;;;22.47;4.53;;;;;;;;;;5014310;28;20224;-69
2021/10/23 02:43:51;;;;;;;22.33;4.70;;;;;;;;;;5022995;28;20285;-69
2021/10/23 02:46:16;;;;;;;16.87;4.30;;;;;;;;;;5015924;28;20190;-70
2021/10/23 02:48:42;;;;;;;14.30;4.43;;;;;;;;;;5023792;28;20186;-69
2021/10/23 02:51:08;;;;;;;21.93;5.00;;;;;;;;;;5017124;28;20190;-70
2021/10/23 02:53:33;;;;;;;22.70;4.23;;;;;;;;;;5019180;28;20672;-69
2021/10/23 02:55:59;;;;;;;19.43;4.90;;;;;;;;;;5026757;28;20197;-69
2021/10/23 02:58:24;;;;;;;23.40;5.77;;;;;;;;;;5014152;28;20181;-69
2021/10/23 03:00:49;;;;;;;23.50;4.77;;;;;;;;;;5023535;28;20293;-70
2021/10/23 03:03:15;;;;;;;15.53;4.30;;;;;;;;;;5016132;28;20189;-70
2021/10/23 03:05:40;;;;;;;23.27;4.40;;;;;;;;;;5023380;28;20185;-70
2021/10/23 03:08:06;;;;;;;15.13;4.43;;;;;;;;;;5013883;28;20597;-70
2021/10/23 03:10:31;;;;;;;19.50;4.63;;;;;;;;;;5021065;28;20184;-70
2021/10/23 03:12:56;;;;;;;18.60;4.67;;;;;;;;;;5015725;28;20673;-70
2021/10/23 03:15:22;;;;;;;21.83;4.33;;;;;;;;;;5022877;28;20178;-70
2021/10/23 03:17:47;;;;;;;17.87;4.60;;;;;;;;;;5014175;28;20190;-69
2021/10/23 03:20:13;;;;;;;21.10;4.60;;;;;;;;;;5024299;28;20186;-70
2021/10/23 03:22:38;;;;;;;26.23;4.80;;;;;;;;;;5017767;28;20339;-69
2021/10/23 03:25:04;;;;;;;15.43;4.50;;;;;;;;;;5020621;28;20199;-69
2021/10/23 03:27:29;;;;;;;22.00;4.50;;;;;;;;;;5021164;28;20587;-69
2021/10/23 03:29:54;;;;;;;14.53;4.23;;;;;;;;;;5017453;28;20217;-69
2021/10/23 03:32:20;;;;;;;15.33;4.63;;;;;;;;;;5022603;28;20223;-69
2021/10/23 03:34:45;;;;;;;19.10;4.47;;;;;;;;;;5015214;28;20186;-69
2021/10/23 03:37:11;;;;;;;19.23;4.80;;;;;;;;;;5023587;28;20193;-68
2021/10/23 03:39:38;;;;;;;18.23;3.53;;;;;;;;;;5019123;28;20263;-71
2021/10/23 03:42:03;;;;;;;16.93;4.50;;;;;;;;;;5025937;28;20206;-71
2021/10/23 03:44:28;;;;;;;15.63;4.50;;;;;;;;;;5016454;28;20411;-69
2021/10/23 03:46:54;;;;;;;24.50;4.70;;;;;;;;;;5026325;28;20285;-69
2021/10/23 03:49:19;;;;;;;19.47;4.33;;;;;;;;;;5018090;28;20201;-69
2021/10/23 03:51:44;;;;;;;15.87;4.80;;;;;;;;;;5024284;28;20183;-69
2021/10/23 03:54:10;;;;;;;22.93;4.77;;;;;;;;;;5025816;28;20187;-69
2021/10/23 03:56:35;;;;;;;19.63;5.10;;;;;;;;;;5016339;28;20217;-69
2021/10/23 03:59:00;;;;;;;23.40;5.10;;;;;;;;;;5024160;28;20196;-69
2021/10/23 04:01:26;;;;;;;22.90;5.60;;;;;;;;;;5015823;28;20673;-69
2021/10/23 04:03:51;;;;;;;20.67;4.57;;;;;;;;;;5023277;28;20632;-69
2021/10/23 04:06:17;;;;;;;21.33;4.80;;;;;;;;;;5016001;28;20282;-69
2021/10/23 04:08:42;;;;;;;23.13;4.97;;;;;;;;;;5025546;28;20225;-70
2021/10/23 04:11:07;;;;;;;22.67;5.20;;;;;;;;;;5016871;28;20675;-69
2021/10/23 04:13:33;;;;;;;16.57;4.73;;;;;;;;;;5024023;28;20185;-69
2021/10/23 04:15:58;;;;;;;20.10;4.90;;;;;;;;;;5018095;28;20193;-69
2021/10/23 04:18:24;;;;;;;17.97;5.27;;;;;;;;;;5025478;28;20253;-69
2021/10/23 04:20:49;;;;;;;23.03;4.83;;;;;;;;;;5017094;28;20198;-69
2021/10/23 04:23:14;;;;;;;13.63;4.83;;;;;;;;;;5023192;28;20177;-69
2021/10/23 04:25:40;;;;;;;19.10;5.13;;;;;;;;;;5026446;28;20197;-70
2021/10/23 04:28:05;;;;;;;21.90;4.80;;;;;;;;;;5015514;28;20182;-69
2021/10/23 04:30:31;;;;;;;16.63;4.77;;;;;;;;;;5025572;28;20186;-70
2021/10/23 04:32:56;;;;;;;21.80;5.37;;;;;;;;;;5014343;28;20690;-70
2021/10/23 04:35:21;;;;;;;18.60;5.07;;;;;;;;;;5020584;28;20194;-69
2021/10/23 04:37:47;;;;;;;19.27;4.97;;;;;;;;;;5018545;28;20522;-69
2021/10/23 04:40:12;;;;;;;13.90;4.33;;;;;;;;;;5023760;28;20531;-69
2021/10/23 04:42:37;;;;;;;17.67;5.37;;;;;;;;;;5016652;28;20182;-69
2021/10/23 04:45:04;;;;;;;21.03;4.83;;;;;;;;;;5026880;28;20182;-70
2021/10/23 04:47:30;;;;;;;22.53;5.43;;;;;;;;;;5015657;28;20205;-69
2021/10/23 04:49:55;;;;;;;24.20;5.23;;;;;;;;;;5026801;28;20190;-69
2021/10/23 04:52:21;;;;;;;22.93;4.77;;;;;;;;;;5018445;28;20236;-70
2021/10/23 04:54:46;;;;;;;23.87;5.57;;;;;;;;;;5023286;28;20709;-69
2021/10/23 04:57:12;;;;;;;27.43;5.77;;;;;;;;;;5021344;28;20211;-69
2021/10/23 04:59:37;;;;;;;17.03;5.53;;;;;;;;;;5015647;28;20208;-69
2021/10/23 05:02:02;;;;;;;20.13;5.67;;;;;;;;;;5022939;28;20297;-69
2021/10/23 05:04:28;;;;;;;22.63;6.07;;;;;;;;;;5018082;28;20190;-69
2021/10/23 05:06:53;;;;;;;24.40;6.10;;;;;;;;;;5023842;28;20649;-69
2021/10/23 05:09:18;;;;;;;27.60;5.40;;;;;;;;;;5014161;28;20607;-69
2021/10/23 05:11:44;;;;;;;22.63;5.73;;;;;;;;;;5026232;28;20178;-69
2021/10/23 05:14:09;;;;;;;33.20;6.40;;;;;;;;;;5014821;28;20285;-70
2021/10/23 05:16:34;;;;;;;16.57;4.97;;;;;;;;;;5024607;28;20288;-69
2021/10/23 05:19:00;;;;;;;21.57;6.47;;;;;;;;;;5012799;28;20186;-69
2021/10/23 05:21:25;;;;;;;25.50;6.50;;;;;;;;;;5019618;28;20293;-69
2021/10/23 05:23:54;;;;;;;21.80;6.03;;;;;;;;;;5022654;28;20646;-69
2021/10/23 05:26:19;;;;;;;29.97;5.97;;;;;;;;;;5015142;28;20185;-69
2021/10/23 05:28:44;;;;;;;20.33;5.07;;;;;;;;;;5021898;28;20232;-69
2021/10/23 05:31:10;;;;;;;27.23;6.70;;;;;;;;;;5016656;28;20596;-69
2021/10/23 05:33:35;;;;;;;16.37;6.00;;;;;;;;;;5022669;28;20571;-70
2021/10/23 05:36:00;;;;;;;28.17;6.57;;;;;;;;;;5013984;28;20186;-71
2021/10/23 05:38:26;;;;;;;18.93;6.27;;;;;;;;;;5022741;28;20300;-71
2021/10/23 05:40:51;;;;;;;23.77;6.13;;;;;;;;;;5014062;28;20236;-70
2021/10/23 05:43:16;;;;;;;21.27;6.17;;;;;;;;;;5022283;28;20232;-69
2021/10/23 05:45:42;;;;;;;23.00;7.03;;;;;;;;;;5015078;28;20231;-69
2021/10/23 05:48:07;;;;;;;17.17;5.63;;;;;;;;;;5019919;28;20194;-69
2021/10/23 05:50:33;;;;;;;26.33;7.10;;;;;;;;;;5013469;28;20637;-69
2021/10/23 05:52:58;;;;;;;19.77;7.03;;;;;;;;;;5022261;28;20190;-69
2021/10/23 05:55:23;;;;;;;20.53;7.07;;;;;;;;;;5025433;28;20281;-69
2021/10/23 05:57:48;;;;;;;25.10;6.80;;;;;;;;;;5013986;28;20210;-69
2021/10/23 06:00:15;;;;;;;20.47;7.07;;;;;;;;;;5021254;28;20181;-70
2021/10/23 06:02:41;;;;;;;18.23;5.77;;;;;;;;;;5013958;28;20247;-69
2021/10/23 06:05:07;;;;;;;23.17;7.50;;;;;;;;;;5023259;28;20634;-69
2021/10/23 06:07:41;;;;;;;25.40;7.67;;;;;;;;;;5011045;28;20214;-69
2021/10/23 06:10:09;;;;;;;18.03;7.40;;;;;;;;;;5019926;28;20198;-70
2021/10/23 06:12:35;;;;;;;21.50;6.93;;;;;;;;;;5014673;28;20614;-69
2021/10/23 06:15:00;;;;;;;24.30;8.47;;;;;;;;;;5022222;28;20280;-69
2021/10/23 06:17:27;;;;;;;22.00;8.37;;;;;;;;;;5012000;28;20304;-69
2021/10/23 06:19:52;;;;;;;29.37;9.63;;;;;;;;;;4328283;28;10000706;-70
2021/10/23 06:22:18;;;;;;;23.20;9.03;;;;;;;;;;5012457;28;20678;-69
2021/10/23 06:24:43;;;;;;;26.93;9.00;;;;;;;;;;5017791;28;20569;-70
2021/10/23 06:27:09;;;;;;;23.60;8.93;;;;;;;;;;5016251;28;20209;-70
2021/10/23 06:29:34;;;;;;;29.20;10.23;;;;;;;;;;5012276;28;20195;-70
2021/10/23 06:32:00;;;;;;;26.53;9.27;;;;;;;;;;5020005;28;20202;-70
2021/10/23 06:34:26;;;;;;;23.50;8.87;;;;;;;;;;5011771;28;20190;-69
2021/10/23 06:36:52;;;;;;;29.53;9.07;;;;;;;;;;5015941;28;20634;-70
2021/10/23 06:39:17;;;;;;;24.70;9.57;;;;;;;;;;5011259;28;20280;-70
2021/10/23 06:41:42;;;;;;;35.67;11.10;;;;;;;;;;5021146;28;20212;-69
2021/10/23 06:44:08;;;;;;;24.87;10.27;;;;;;;;;;5010121;28;20198;-69
2021/10/23 06:46:35;;;;;;;28.57;10.10;;;;;;;;;;5020982;28;20214;-70
2021/10/23 06:49:01;;;;;;;25.83;9.83;;;;;;;;;;5007482;28;20833;-69
2021/10/23 06:51:26;;;;;;;26.63;10.03;;;;;;;;;;5017182;28;20277;-70
2021/10/23 06:53:55;;;;;;;25.40;11.40;;;;;;;;;;5011165;28;20204;-70
2021/10/23 06:56:21;;;;;;;27.60;9.57;;;;;;;;;;5019045;28;20265;-70
2021/10/23 06:58:46;;;;;;;26.27;9.53;;;;;;;;;;5012701;28;20194;-70
2021/10/23 07:01:12;;;;;;;26.17;10.87;;;;;;;;;;5014247;28;20809;-70
2021/10/23 07:03:37;;;;;;;29.47;10.27;;;;;;;;;;5016286;28;20278;-70
2021/10/23 07:06:02;;;;;;;35.10;12.67;;;;;;;;;;5010979;28;20224;-70
2021/10/23 07:08:28;;;;;;;34.43;11.23;;;;;;;;;;5020945;28;20773;-70
2021/10/23 07:10:53;;;;;;;30.60;11.60;;;;;;;;;;5015209;28;20245;-70
2021/10/23 07:13:18;;;;;;;28.63;10.67;;;;;;;;;;5022272;28;20194;-70
2021/10/23 07:15:44;;;;;;;27.00;11.47;;;;;;;;;;5013259;28;20232;-70
2021/10/23 07:18:09;;;;;;;25.67;11.50;;;;;;;;;;5023173;28;20197;-70
2021/10/23 07:20:36;;;;;;;38.67;11.27;;;;;;;;;;5011871;28;20292;-70
2021/10/23 07:23:02;;;;;;;28.80;10.23;;;;;;;;;;5024217;28;20252;-70
2021/10/23 07:25:27;;;;;;;26.43;9.80;;;;;;;;;;5015319;28;20910;-70
2021/10/23 07:27:53;;;;;;;22.87;9.53;;;;;;;;;;5021645;28;20200;-71
2021/10/23 07:30:18;;;;;;;28.07;9.17;;;;;;;;;;5022263;28;20881;-70
2021/10/23 07:32:44;;;;;;;25.67;9.27;;;;;;;;;;5010193;28;20200;-70
2021/10/23 07:35:11;;;;;;;26.50;9.43;;;;;;;;;;5023568;28;20198;-70
2021/10/23 07:37:37;;;;;;;20.57;9.07;;;;;;;;;;5014472;28;20263;-70
2021/10/23 07:40:06;;;;;;;18.90;8.83;;;;;;;;;;5020240;28;20194;-70
2021/10/23 07:42:32;;;;;;;25.60;9.10;;;;;;;;;;5011798;28;20596;-70
2021/10/23 07:44:58;;;;;;;21.63;9.53;;;;;;;;;;5021982;28;20646;-70
2021/10/23 07:47:23;;;;;;;25.07;9.37;;;;;;;;;;5008926;28;20233;-70
2021/10/23 07:49:49;;;;;;;22.43;10.00;;;;;;;;;;5022013;28;20862;-70
2021/10/23 07:52:16;;;;;;;20.93;9.80;;;;;;;;;;5011811;28;20190;-70
2021/10/23 07:54:42;;;;;;;23.90;9.10;;;;;;;;;;5022649;28;20672;-70
2021/10/23 07:57:08;;;;;;;24.87;9.00;;;;;;;;;;5011603;28;20536;-70
2021/10/23 07:59:34;;;;;;;22.27;8.23;;;;;;;;;;5020443;28;20190;-70
2021/10/23 08:02:01;;;;;;;20.13;8.53;;;;;;;;;;5018896;28;20217;-69
2021/10/23 08:04:28;;;;;;;18.33;8.00;;;;;;;;;;5015468;28;20197;-70
2021/10/23 08:06:54;;;;;;;21.10;7.73;;;;;;;;;;5022527;28;20204;-70
2021/10/23 08:09:19;;;;;;;19.97;7.33;;;;;;;;;;5006975;28;20784;-70
2021/10/23 08:11:45;;;;;;;18.23;7.70;;;;;;;;;;5023700;28;20190;-70
2021/10/23 08:14:14;;;;;;;17.83;7.20;;;;;;;;;;5009730;28;20629;-70
2021/10/23 08:16:40;;;;;;;15.50;6.10;;;;;;;;;;5016126;28;20276;-70
2021/10/23 08:19:05;;;;;;;18.30;6.97;;;;;;;;;;5008917;28;20308;-70
2021/10/23 08:21:31;;;;;;;16.50;6.87;;;;;;;;;;5021061;28;20225;-70
2021/10/23 08:23:57;;;;;;;14.93;6.03;;;;;;;;;;5011481;28;20190;-70
2021/10/23 08:26:23;;;;;;;18.63;5.97;;;;;;;;;;5020494;28;20526;-70
2021/10/23 08:28:48;;;;;;;20.00;5.77;;;;;;;;;;5012124;28;20191;-70
2021/10/23 08:31:13;;;;;;;13.27;6.00;;;;;;;;;;5022073;28;20272;-70
2021/10/23 08:33:39;;;;;;;17.43;6.17;;;;;;;;;;5018800;28;20594;-70
2021/10/23 08:36:04;;;;;;;15.37;6.17;;;;;;;;;;5019073;28;20186;-70
2021/10/23 08:38:29;;;;;;;26.43;6.47;;;;;;;;;;5018982;28;20189;-70
2021/10/23 08:40:56;;;;;;;20.63;5.97;;;;;;;;;;5012437;28;20214;-70
2021/10/23 08:43:24;;;;;;;18.13;5.93;;;;;;;;;;5020900;28;20189;-70
2021/10/23 08:45:55;;;;;;;17.57;6.27;;;;;;;;;;5016785;28;20200;-71
2021/10/23 08:48:21;;;;;;;16.20;6.10;;;;;;;;;;5022025;28;20178;-70
2021/10/23 08:50:47;;;;;;;10.83;5.03;;;;;;;;;;5015233;28;20253;-71
2021/10/23 08:53:13;;;;;;;14.47;4.50;;;;;;;;;;5018600;28;20179;-70
2021/10/23 08:55:38;;;;;;;16.17;4.90;;;;;;;;;;5014689;28;20197;-70
2021/10/23 08:58:03;;;;;;;13.03;5.13;;;;;;;;;;5023071;28;20209;-70
2021/10/23 09:00:29;;;;;;;20.03;5.10;;;;;;;;;;5014750;28;20218;-71
2021/10/23 09:02:55;;;;;;;14.03;4.67;;;;;;;;;;5022376;28;20185;-71
2021/10/23 09:05:21;;;;;;;12.47;3.93;;;;;;;;;;5019342;28;20232;-70
2021/10/23 09:07:49;;;;;;;12.47;3.77;;;;;;;;;;4984421;28;1046579;-71
2021/10/23 09:10:30;;;;;;;14.43;4.97;;;;;;;;;;5026914;28;20505;-70
2021/10/23 09:13:01;;;;;;;9.60;3.22;;;;;;;;;;5013835;28;20213;-71
2021/10/23 09:15:31;;;;;;;11.00;3.40;;;;;;;;;;5024072;28;20213;-70
2021/10/23 09:17:56;;;;;;;10.77;3.20;;;;;;;;;;5015770;28;20293;-70
2021/10/23 09:20:21;;;;;;;13.43;3.40;;;;;;;;;;5024874;28;20343;-70
2021/10/23 09:22:52;;;;;;;16.27;3.80;;;;;;;;;;5016314;28;20190;-70
2021/10/23 09:25:27;;;;;;;10.30;3.78;;;;;;;;;;5025157;28;20525;-70
2021/10/23 09:27:58;;;;;;;12.43;3.93;;;;;;;;;;5017008;28;20575;-70
2021/10/23 09:30:31;;;;;;;12.82;4.20;;;;;;;;;;5021408;28;20199;-71
2021/10/23 09:33:07;;;;;;;10.23;3.55;;;;;;;;;;5014619;28;20216;-70
2021/10/23 09:35:35;;;;;;;13.27;3.17;;;;;;;;;;5025151;28;20194;-70
2021/10/23 09:38:02;;;;;;;13.05;3.17;;;;;;;;;;5017936;28;20186;-70
2021/10/23 09:40:29;;;;;;;11.05;3.80;;;;;;;;;;5021736;28;20208;-71
2021/10/23 09:43:25;;;;;;;10.43;3.83;;;;;;;;;;5009963;28;20190;-70
2021/10/23 09:48:40;;;;;;;13.50;4.32;;;;;;;;;;5013938;28;20193;-71
2021/10/23 09:51:26;;;;;;;13.43;4.10;;;;;;;;;;5013359;28;20233;-70
2021/10/23 09:54:04;;;;;;;12.68;4.30;;;;;;;;;;5012628;28;20208;-71
2021/10/23 09:56:32;;;;;;;20.38;5.28;;;;;;;;;;5020248;28;20275;-71
2021/10/23 09:58:59;;;;;;;11.75;4.15;;;;;;;;;;5013595;28;20576;-71
2021/10/23 10:01:26;;;;;;;13.90;4.40;;;;;;;;;;5022786;28;20356;-72
2021/10/23 10:03:53;;;;;;;10.45;3.50;;;;;;;;;;5013614;28;22067;-71
2021/10/23 10:06:20;;;;;;;13.80;3.63;;;;;;;;;;5021756;28;20182;-71
2021/10/23 10:08:47;;;;;;;11.50;3.58;;;;;;;;;;5015514;28;20596;-72
2021/10/23 10:11:13;;;;;;;13.55;3.75;;;;;;;;;;5022810;28;20668;-70
2021/10/23 10:13:39;;;;;;;9.30;3.42;;;;;;;;;;5022819;28;20190;-72
2021/10/23 10:16:05;;;;;;;13.27;3.75;;;;;;;;;;5014531;28;20265;-70
2021/10/23 10:18:32;;;;;;;13.88;3.15;;;;;;;;;;5020957;28;20190;-71
2021/10/23 10:20:59;;;;;;;7.07;3.35;;;;;;;;;;5014812;28;20299;-71
2021/10/23 10:23:39;;;;;;;10.60;3.05;;;;;;;;;;5023449;28;20182;-71
2021/10/23 10:26:28;;;;;;;9.80;2.63;;;;;;;;;;5011935;28;20190;-71
2021/10/23 10:29:10;;;;;;;10.30;3.00;;;;;;;;;;5019723;28;20185;-70
2021/10/23 10:32:03;;;;;;;6.72;2.67;;;;;;;;;;5011296;28;20189;-71
2021/10/23 10:43:00;;;;;;;8.48;2.10;;;;;;;;;;5024138;28;20588;-70
2021/10/23 10:45:41;;;;;;;7.45;2.35;;;;;;;;;;5014861;28;20186;-71
2021/10/23 10:48:07;;;;;;;7.82;2.00;;;;;;;;;;5019217;28;20186;-71
2021/10/23 10:50:37;;;;;;;11.30;2.20;;;;;;;;;;5018097;28;20632;-71
2021/10/23 10:53:15;;;;;;;5.38;1.75;;;;;;;;;;5009658;28;20247;-70
2021/10/23 10:55:41;;;;;;;8.82;2.03;;;;;;;;;;5021262;28;20190;-72
2021/10/23 10:58:09;;;;;;;11.65;1.92;;;;;;;;;;5010677;28;20178;-71
2021/10/23 11:00:51;;;;;;;8.20;1.60;;;;;;;;;;5022255;28;20198;-71
2021/10/23 11:03:35;;;;;;;10.10;1.85;;;;;;;;;;5006857;28;20209;-72
2021/10/23 11:06:34;;;;;;;10.70;2.00;;;;;;;;;;5022585;28;20197;-71
2021/10/23 11:11:50;;;;;;;13.40;2.75;;;;;;;;;;5020572;28;20223;-71
2021/10/23 11:14:21;;;;;;;5.95;1.75;;;;;;;;;;5014797;28;20182;-73
2021/10/23 11:16:52;;;;;;;9.55;1.95;;;;;;;;;;5016151;28;20454;-69
2021/10/23 11:19:37;;;;;;;5.20;2.05;;;;;;;;;;5012690;28;20466;-70
2021/10/23 11:22:19;;;;;;;8.70;1.73;;;;;;;;;;5015122;28;20728;-68
2021/10/23 11:24:51;;;;;;;8.45;1.80;;;;;;;;;;5019998;28;20253;-72
2021/10/23 11:27:30;;;;;;;9.98;2.25;;;;;;;;;;5017596;28;20598;-72
2021/10/23 11:30:25;;;;;;;9.65;1.73;;;;;;;;;;5019192;28;20266;-71
2021/10/23 11:33:02;;;;;;;3.58;1.20;;;;;;;;;;5010773;28;20217;-73
2021/10/23 11:35:42;;;;;;;10.57;1.70;;;;;;;;;;5018326;28;20194;-71
2021/10/23 11:38:16;;;;;;;5.68;1.48;;;;;;;;;;5013291;28;20189;-72
2021/10/23 11:40:42;;;;;;;11.65;1.60;;;;;;;;;;5019944;28;20287;-69
2021/10/23 11:43:15;;;;;;;3.70;1.38;;;;;;;;;;5023009;28;20764;-70
2021/10/23 11:45:42;;;;;;;8.77;1.52;;;;;;;;;;5014679;28;20226;-70
2021/10/23 11:48:10;;;;;;;6.05;1.30;;;;;;;;;;5020394;28;20198;-70
2021/10/23 11:50:41;;;;;;;8.48;1.88;;;;;;;;;;5015040;28;20676;-70
2021/10/23 11:53:19;;;;;;;6.22;1.50;;;;;;;;;;5023450;28;20523;-70
2021/10/23 11:55:52;;;;;;;8.68;1.25;;;;;;;;;;5017984;28;20190;-72
2021/10/23 11:58:20;;;;;;;5.97;1.23;;;;;;;;;;5019050;28;20190;-69
2021/10/23 12:00:58;;;;;;;5.95;1.20;;;;;;;;;;5017788;28;20220;-70
2021/10/23 12:03:39;;;;;;;5.93;1.30;;;;;;;;;;5027186;28;20268;-71
2021/10/23 12:06:24;;;;;;;7.32;1.45;;;;;;;;;;5016720;28;20241;-68
2021/10/23 12:08:50;;;;;;;8.50;1.20;;;;;;;;;;5023378;28;20259;-69
2021/10/23 12:11:26;;;;;;;6.25;1.50;;;;;;;;;;5014537;28;20336;-69
2021/10/23 12:14:00;;;;;;;7.82;1.30;;;;;;;;;;5028810;28;20198;-69
2021/10/23 12:16:41;;;;;;;6.90;1.42;;;;;;;;;;5016297;28;20664;-70
2021/10/23 12:19:19;;;;;;;7.55;1.40;;;;;;;;;;5028583;28;20198;-70
2021/10/23 12:22:07;;;;;;;7.43;1.83;;;;;;;;;;5019194;28;20532;-70
2021/10/23 12:24:36;;;;;;;8.30;1.08;;;;;;;;;;5024589;28;20552;-70
2021/10/23 12:27:09;;;;;;;5.43;1.00;;;;;;;;;;5018501;28;20189;-71
2021/10/23 12:29:44;;;;;;;8.25;1.00;;;;;;;;;;5024949;28;21534;-71
2021/10/23 12:32:17;;;;;;;8.75;1.15;;;;;;;;;;5017728;28;20189;-71
2021/10/23 12:34:55;;;;;;;6.18;1.52;;;;;;;;;;5024455;28;20542;-72
2021/10/23 12:37:27;;;;;;;10.68;1.20;;;;;;;;;;5014089;28;20182;-70
2021/10/23 12:40:10;;;;;;;6.53;1.00;;;;;;;;;;5025085;28;20204;-72
2021/10/23 12:42:38;;;;;;;8.63;1.25;;;;;;;;;;5018016;28;20220;-72
2021/10/23 12:45:06;;;;;;;4.45;0.82;;;;;;;;;;5023483;28;20193;-70
2021/10/23 12:47:31;;;;;;;8.88;1.50;;;;;;;;;;5017735;28;20261;-72
2021/10/23 12:49:57;;;;;;;7.75;1.15;;;;;;;;;;5024198;28;20602;-71
2021/10/23 12:52:22;;;;;;;4.95;1.10;;;;;;;;;;5017416;28;20197;-70
2021/10/23 12:54:48;;;;;;;9.25;1.00;;;;;;;;;;5026393;28;20535;-72
2021/10/23 12:57:13;;;;;;;7.55;1.38;;;;;;;;;;5016126;28;20213;-71
2021/10/23 12:59:38;;;;;;;5.05;1.10;;;;;;;;;;5025963;28;20190;-72
2021/10/23 13:02:04;;;;;;;6.55;1.13;;;;;;;;;;5026649;28;20263;-70
2021/10/23 13:04:29;;;;;;;3.65;1.00;;;;;;;;;;5015475;28;20423;-72
2021/10/23 13:06:54;;;;;;;5.25;1.13;;;;;;;;;;5026175;28;20201;-71
2021/10/23 13:09:20;;;;;;;6.53;1.00;;;;;;;;;;5015358;28;20233;-70
2021/10/23 13:11:45;;;;;;;4.35;1.05;;;;;;;;;;5027557;28;20524;-71
2021/10/23 13:14:10;;;;;;;6.30;1.15;;;;;;;;;;5016755;28;20279;-71
2021/10/23 13:16:36;;;;;;;11.32;1.50;;;;;;;;;;5026614;28;20208;-70
2021/10/23 13:19:01;;;;;;;7.25;1.17;;;;;;;;;;5014735;28;20208;-71
2021/10/23 13:21:27;;;;;;;18.67;1.58;;;;;;;;;;5028322;28;20256;-70
2021/10/23 13:23:53;;;;;;;4.82;1.30;;;;;;;;;;5014741;28;20193;-70
2021/10/23 13:26:18;;;;;;;8.82;1.20;;;;;;;;;;5025849;28;20235;-71
2021/10/23 13:28:43;;;;;;;5.43;1.25;;;;;;;;;;5023636;28;20273;-71
2021/10/23 13:31:11;;;;;;;8.20;1.02;;;;;;;;;;5015647;28;20212;-71
2021/10/23 13:33:36;;;;;;;9.30;1.20;;;;;;;;;;5023321;28;20191;-70
2021/10/23 13:36:02;;;;;;;6.10;1.20;;;;;;;;;;5015523;28;20198;-70
2021/10/23 13:38:27;;;;;;;9.18;1.70;;;;;;;;;;5020965;28;20209;-70
2021/10/23 13:40:53;;;;;;;7.18;1.23;;;;;;;;;;5016388;28;20681;-70
2021/10/23 13:43:20;;;;;;;9.93;2.05;;;;;;;;;;5023637;28;20182;-70
2021/10/23 13:45:45;;;;;;;10.80;1.60;;;;;;;;;;5018984;28;20186;-70
2021/10/23 13:48:11;;;;;;;10.00;1.80;;;;;;;;;;5022658;28;20186;-70
2021/10/23 13:50:36;;;;;;;10.13;1.95;;;;;;;;;;5017918;28;20189;-70
2021/10/23 13:53:02;;;;;;;9.45;1.67;;;;;;;;;;5023939;28;20178;-70
2021/10/23 13:55:27;;;;;;;4.95;1.38;;;;;;;;;;5015974;28;20189;-70
2021/10/23 13:57:52;;;;;;;13.35;2.47;;;;;;;;;;5024561;28;21485;-70
2021/10/23 14:00:19;;;;;;;4.55;1.48;;;;;;;;;;5016645;28;20532;-71
2021/10/23 14:02:44;;;;;;;9.40;1.75;;;;;;;;;;5023030;28;20291;-71
2021/10/23 14:05:10;;;;;;;8.27;1.77;;;;;;;;;;5023684;28;20613;-71
2021/10/23 14:07:35;;;;;;;5.43;1.15;;;;;;;;;;5014810;28;20213;-69
2021/10/23 14:10:01;;;;;;;7.70;1.77;;;;;;;;;;5021105;28;20221;-70
2021/10/23 14:12:26;;;;;;;6.43;1.15;;;;;;;;;;5013871;28;20513;-71
2021/10/23 14:14:51;;;;;;;8.00;1.70;;;;;;;;;;5022565;28;20217;-70
2021/10/23 14:17:17;;;;;;;5.57;1.40;;;;;;;;;;5010736;28;20243;-70
2021/10/23 14:19:42;;;;;;;13.77;1.63;;;;;;;;;;5020323;28;20550;-70
2021/10/23 14:22:12;;;;;;;7.78;1.50;;;;;;;;;;5011228;28;20210;-70
2021/10/23 14:24:38;;;;;;;6.65;1.63;;;;;;;;;;5022070;28;20190;-70
2021/10/23 14:27:11;;;;;;;12.10;1.85;;;;;;;;;;5011841;28;20197;-70
2021/10/23 14:29:37;;;;;;;6.72;1.50;;;;;;;;;;5020553;28;20674;-70
2021/10/23 14:32:04;;;;;;;9.07;1.77;;;;;;;;;;5012500;28;20261;-70
2021/10/23 14:34:29;;;;;;;8.02;1.75;;;;;;;;;;5020088;28;20191;-71
2021/10/23 14:36:55;;;;;;;10.65;1.90;;;;;;;;;;5021605;28;20185;-70
2021/10/23 14:39:20;;;;;;;9.68;1.95;;;;;;;;;;5013420;28;20193;-70
2021/10/23 14:41:45;;;;;;;7.40;2.10;;;;;;;;;;5020097;28;20210;-70
2021/10/23 14:44:11;;;;;;;8.35;1.52;;;;;;;;;;5012398;28;20213;-70
2021/10/23 14:46:36;;;;;;;8.48;1.73;;;;;;;;;;5020769;28;20243;-72
2021/10/23 14:49:03;;;;;;;10.73;1.80;;;;;;;;;;5011703;28;20328;-70